Time;durP1;ratioP1;P1;durP2;ratioP2;P2;SDS_P1;SDS_P2;PMS_P1;PMS_P2;Temp;Humidity;BMP_temperature;BMP_pressure;BME280_temperature;BME280_humidity;BME280_pressure;Samples;Min_cycle;Max_cycle;Signal;HPM_P1;HPM_P2
2023/08/05 00:00:29;;;;;;;4.43;3.13;;;12.40;99.90;;;;;;487014;244;28964;-77
2023/08/05 00:02:31;;;;;;;8.03;2.93;;;12.50;99.90;;;;;;468455;252;28786;-79
2023/08/05 00:04:32;;;;;;;2.43;2.33;;;12.40;99.90;;;;;;487048;243;28196;-79
2023/08/05 00:06:33;;;;;;;4.97;3.20;;;12.40;99.90;;;;;;487165;244;28358;-80
2023/08/05 00:08:34;;;;;;;3.00;2.80;;;12.40;99.90;;;;;;468594;252;28259;-78
2023/08/05 00:10:36;;;;;;;3.40;2.83;;;12.40;99.90;;;;;;487193;244;28500;-80
2023/08/05 00:12:37;;;;;;;5.27;3.50;;;12.40;99.90;;;;;;487233;244;28414;-79
2023/08/05 00:14:38;;;;;;;3.57;3.30;;;12.30;99.90;;;;;;468628;253;28099;-80
2023/08/05 00:16:39;;;;;;;4.27;3.37;;;12.40;99.90;;;;;;487126;244;28482;-82
2023/08/05 00:18:41;;;;;;;3.47;3.17;;;12.40;99.90;;;;;;487175;244;28665;-79
2023/08/05 00:20:42;;;;;;;3.80;3.50;;;12.40;99.90;;;;;;468600;252;29356;-80
2023/08/05 00:22:43;;;;;;;9.00;3.60;;;12.40;99.90;;;;;;487174;244;28518;-78
2023/08/05 00:24:44;;;;;;;3.47;3.17;;;12.30;99.90;;;;;;487112;244;28808;-80
2023/08/05 00:26:47;;;;;;;3.03;2.83;;;;;;;;;;468636;252;28464;-77
2023/08/05 00:28:48;;;;;;;3.50;3.20;;;12.20;99.90;;;;;;487122;244;26576;-82
2023/08/05 00:30:49;;;;;;;3.70;3.40;;;12.20;99.90;;;;;;468610;252;28293;-79
2023/08/05 00:32:50;;;;;;;3.57;3.27;;;12.20;99.90;;;;;;487026;243;29403;-79
2023/08/05 00:34:52;;;;;;;3.90;3.30;;;12.10;99.90;;;;;;487054;244;28734;-78
2023/08/05 00:36:53;;;;;;;3.20;3.00;;;12.20;99.90;;;;;;468483;252;28795;-79
2023/08/05 00:38:55;;;;;;;3.50;3.30;;;;;;;;;;487111;244;29400;-79
2023/08/05 00:40:57;;;;;;;3.30;3.00;;;12.10;99.90;;;;;;487052;244;26952;-77
2023/08/05 00:42:58;;;;;;;3.60;2.93;;;12.10;99.90;;;;;;487106;244;28525;-81
2023/08/05 00:44:59;;;;;;;3.50;3.20;;;12.10;99.90;;;;;;468455;252;28797;-79
2023/08/05 00:47:00;;;;;;;3.40;3.10;;;12.10;99.90;;;;;;487232;244;28991;-79
2023/08/05 00:49:02;;;;;;;3.33;3.03;;;12.10;99.90;;;;;;487083;244;28189;-81
2023/08/05 00:51:03;;;;;;;3.17;2.87;;;12.10;99.90;;;;;;487215;244;28519;-77
2023/08/05 00:53:04;;;;;;;3.10;2.90;;;12.10;99.90;;;;;;468657;252;29009;-80
2023/08/05 00:55:05;;;;;;;3.00;2.80;;;12.10;99.90;;;;;;487176;243;28729;-79
2023/08/05 00:57:07;;;;;;;2.90;2.70;;;12.10;99.90;;;;;;487212;244;29025;-78
2023/08/05 00:59:08;;;;;;;3.20;2.90;;;12.00;99.90;;;;;;468515;252;28080;-81
2023/08/05 01:01:09;;;;;;;2.83;2.63;;;12.00;99.90;;;;;;487057;244;28257;-80
2023/08/05 01:03:10;;;;;;;2.80;2.60;;;12.00;99.90;;;;;;487095;244;28017;-80
2023/08/05 01:05:12;;;;;;;4.03;3.40;;;11.90;99.90;;;;;;468618;252;28396;-80
2023/08/05 01:07:13;;;;;;;3.63;3.33;;;11.90;99.90;;;;;;487279;244;28161;-81
2023/08/05 01:09:14;;;;;;;3.70;3.40;;;11.90;99.90;;;;;;487100;244;28443;-81
2023/08/05 01:11:16;;;;;;;3.97;3.67;;;11.90;99.90;;;;;;468547;253;28511;-80
2023/08/05 01:13:17;;;;;;;3.77;3.47;;;11.90;99.90;;;;;;486995;244;28356;-82
2023/08/05 01:15:18;;;;;;;3.60;3.30;;;11.80;99.90;;;;;;487051;244;28902;-80
2023/08/05 01:17:19;;;;;;;3.80;3.50;;;11.80;99.90;;;;;;487102;244;28917;-82
2023/08/05 01:19:21;;;;;;;3.50;3.20;;;11.80;99.90;;;;;;468702;253;28580;-79
2023/08/05 01:21:22;;;;;;;3.23;3.03;;;11.80;99.90;;;;;;487219;244;28926;-78
2023/08/05 01:23:23;;;;;;;5.47;3.77;;;11.80;99.90;;;;;;487456;244;28559;-82
2023/08/05 01:25:24;;;;;;;3.40;3.20;;;11.70;99.90;;;;;;468822;254;28182;-80
2023/08/05 01:27:26;;;;;;;3.67;3.37;;;11.70;99.90;;;;;;487339;244;28246;-81
2023/08/05 01:29:28;;;;;;;3.73;3.43;;;;;;;;;;487201;243;28231;-81
2023/08/05 01:31:29;;;;;;;7.13;3.50;;;11.60;99.90;;;;;;468645;252;27608;-79
2023/08/05 01:33:30;;;;;;;4.60;2.90;;;11.60;99.90;;;;;;487299;244;28673;-82
2023/08/05 01:35:32;;;;;;;3.20;3.00;;;11.60;99.90;;;;;;487266;244;28272;-83
2023/08/05 01:37:33;;;;;;;3.80;3.50;;;11.60;99.90;;;;;;468720;252;28408;-80
2023/08/05 01:39:35;;;;;;;3.47;3.20;;;;;;;;;;487249;244;28344;-83
2023/08/05 01:41:37;;;;;;;3.70;3.40;;;11.50;99.90;;;;;;487321;244;27837;-81
2023/08/05 01:43:38;;;;;;;4.00;3.60;;;11.50;99.90;;;;;;468625;252;29512;-80
2023/08/05 01:45:39;;;;;;;3.60;3.30;;;11.40;99.90;;;;;;487133;244;28840;-81
2023/08/05 01:47:40;;;;;;;4.97;3.70;;;11.40;99.90;;;;;;487169;244;28236;-79
2023/08/05 01:49:42;;;;;;;6.23;3.77;;;11.40;99.90;;;;;;487303;244;28174;-81
2023/08/05 01:51:43;;;;;;;3.57;3.27;;;11.40;99.90;;;;;;487320;243;28288;-81
2023/08/05 01:53:44;;;;;;;4.03;3.50;;;11.40;99.90;;;;;;468727;252;28239;-81
2023/08/05 01:55:45;;;;;;;3.23;3.03;;;11.40;99.90;;;;;;487237;244;28290;-79
2023/08/05 01:57:47;;;;;;;4.83;3.00;;;11.40;99.90;;;;;;487318;244;28197;-79
2023/08/05 01:59:48;;;;;;;3.60;3.20;;;11.40;99.90;;;;;;468742;252;28258;-80
2023/08/05 02:01:49;;;;;;;2.90;2.70;;;11.30;99.90;;;;;;487224;244;28417;-78
2023/08/05 02:03:50;;;;;;;2.80;2.70;;;11.40;99.90;;;;;;487237;244;28613;-82
2023/08/05 02:05:52;;;;;;;3.93;3.63;;;11.40;99.90;;;;;;468673;252;27892;-79
2023/08/05 02:07:53;;;;;;;3.20;2.97;;;11.30;99.90;;;;;;487235;244;28476;-79
2023/08/05 02:09:54;;;;;;;7.03;3.40;;;11.30;99.90;;;;;;487281;244;28793;-80
2023/08/05 02:11:55;;;;;;;3.30;3.10;;;11.30;99.90;;;;;;468697;252;28606;-81
2023/08/05 02:13:57;;;;;;;2.83;2.63;;;11.30;99.90;;;;;;487232;244;28287;-82
2023/08/05 02:15:58;;;;;;;3.23;3.03;;;11.30;99.90;;;;;;487234;243;28252;-79
2023/08/05 02:17:59;;;;;;;3.63;3.33;;;11.30;99.90;;;;;;468588;252;28043;-80
2023/08/05 02:20:00;;;;;;;6.23;3.57;;;11.20;99.90;;;;;;487148;244;28231;-84
2023/08/05 02:22:02;;;;;;;3.20;3.00;;;11.20;99.90;;;;;;487191;244;28266;-79
2023/08/05 02:24:03;;;;;;;3.10;2.90;;;11.10;99.90;;;;;;468662;252;28132;-78
2023/08/05 02:26:04;;;;;;;4.30;3.03;;;11.10;99.90;;;;;;487221;244;28105;-80
2023/08/05 02:28:05;;;;;;;3.80;2.90;;;11.10;99.90;;;;;;487340;244;28335;-81
2023/08/05 02:30:08;;;;;;;3.07;2.83;;;11.00;99.90;;;;;;468666;252;28250;-80
2023/08/05 02:32:08;;;;;;;11.07;2.83;;;11.10;99.90;;;;;;487183;244;28773;-81
2023/08/05 02:34:09;;;;;;;4.10;2.83;;;11.10;99.90;;;;;;487319;244;28750;-79
2023/08/05 02:36:10;;;;;;;2.93;2.73;;;11.00;99.90;;;;;;468615;252;28199;-81
2023/08/05 02:38:12;;;;;;;3.27;3.03;;;11.00;99.90;;;;;;487162;244;28160;-79
2023/08/05 02:40:13;;;;;;;3.80;3.50;;;11.00;99.90;;;;;;487185;244;28273;-80
2023/08/05 02:42:14;;;;;;;3.10;2.60;;;11.00;99.90;;;;;;468702;252;28260;-78
2023/08/05 02:44:15;;;;;;;3.63;2.67;;;11.00;99.90;;;;;;487296;244;28151;-78
2023/08/05 02:46:17;;;;;;;2.93;2.73;;;11.00;99.90;;;;;;487263;244;28151;-80
2023/08/05 02:48:18;;;;;;;2.90;2.70;;;11.00;99.90;;;;;;468661;253;28164;-80
2023/08/05 02:50:19;;;;;;;2.87;2.60;;;11.00;99.90;;;;;;487366;244;28099;-82
2023/08/05 02:52:20;;;;;;;3.20;3.00;;;10.90;99.90;;;;;;487414;244;28177;-79
2023/08/05 02:54:22;;;;;;;3.00;2.80;;;10.90;99.90;;;;;;468731;252;28065;-81
2023/08/05 02:56:23;;;;;;;7.50;2.67;;;10.90;99.90;;;;;;487302;244;28655;-81
2023/08/05 02:58:25;;;;;;;2.60;2.40;;;10.80;99.90;;;;;;487361;244;28846;-79
2023/08/05 03:00:25;;;;;;;4.67;2.67;;;10.90;99.90;;;;;;468797;252;28518;-82
2023/08/05 03:02:27;;;;;;;2.73;2.60;;;10.80;99.90;;;;;;487371;244;28085;-79
2023/08/05 03:04:28;;;;;;;2.20;2.10;;;10.80;99.90;;;;;;487395;244;28103;-79
2023/08/05 03:06:29;;;;;;;2.80;2.10;;;10.70;99.90;;;;;;468770;252;28123;-80
2023/08/05 03:08:30;;;;;;;2.30;2.17;;;10.70;99.90;;;;;;487349;244;28103;-80
2023/08/05 03:10:32;;;;;;;2.20;2.10;;;10.70;99.90;;;;;;487375;244;28009;-81
2023/08/05 03:12:33;;;;;;;2.10;2.00;;;10.80;99.90;;;;;;468719;253;28156;-81
2023/08/05 03:14:34;;;;;;;2.40;2.20;;;10.80;99.90;;;;;;487403;244;28137;-78
2023/08/05 03:16:37;;;;;;;2.50;1.90;;;10.80;99.90;;;;;;487392;244;28173;-79
2023/08/05 03:18:37;;;;;;;2.10;2.00;;;10.70;99.90;;;;;;468692;253;28600;-80
2023/08/05 03:20:38;;;;;;;2.20;2.10;;;10.80;99.90;;;;;;487339;243;28739;-80
2023/08/05 03:22:39;;;;;;;2.00;1.90;;;10.70;99.90;;;;;;487380;244;28589;-79
2023/08/05 03:24:40;;;;;;;2.43;2.33;;;10.70;99.90;;;;;;487356;244;28529;-79
2023/08/05 03:26:42;;;;;;;2.60;2.40;;;10.70;99.90;;;;;;468698;253;27898;-80
2023/08/05 03:28:43;;;;;;;2.60;2.30;;;10.70;99.90;;;;;;487254;244;28195;-80
2023/08/05 03:30:44;;;;;;;2.97;2.77;;;10.70;99.90;;;;;;487388;244;28230;-78
2023/08/05 03:32:46;;;;;;;3.70;2.00;;;10.70;99.90;;;;;;468734;253;28139;-80
2023/08/05 03:34:47;;;;;;;2.60;2.40;;;10.70;99.90;;;;;;487361;244;28090;-79
2023/08/05 03:36:48;;;;;;;2.27;2.17;;;10.70;99.90;;;;;;487374;244;28177;-82
2023/08/05 03:38:49;;;;;;;2.33;2.23;;;10.60;99.90;;;;;;468752;252;27925;-79
2023/08/05 03:40:51;;;;;;;2.27;2.17;;;10.50;99.90;;;;;;487367;244;28025;-83
2023/08/05 03:42:52;;;;;;;2.53;2.33;;;10.50;99.90;;;;;;487383;244;28134;-80
2023/08/05 03:44:53;;;;;;;2.37;2.17;;;10.50;99.90;;;;;;468842;252;28554;-79
2023/08/05 03:46:54;;;;;;;2.50;2.30;;;10.40;99.90;;;;;;487381;244;28595;-80
2023/08/05 03:48:56;;;;;;;2.40;2.20;;;10.40;99.90;;;;;;487416;244;28546;-80
2023/08/05 03:50:57;;;;;;;2.27;2.10;;;10.40;99.90;;;;;;468735;252;27534;-79
2023/08/05 03:52:58;;;;;;;2.27;2.17;;;10.40;99.90;;;;;;487367;244;27866;-81
2023/08/05 03:54:59;;;;;;;2.30;2.10;;;10.40;99.90;;;;;;487363;244;28165;-78
2023/08/05 03:57:03;;;;;;;2.30;2.20;;;10.30;99.90;;;;;;468785;252;28023;-82
2023/08/05 03:59:02;;;;;;;2.17;2.07;;;10.30;99.90;;;;;;487239;244;28181;-81
2023/08/05 04:01:04;;;;;;;2.17;2.07;;;10.30;99.90;;;;;;468842;252;28001;-78
2023/08/05 04:03:04;;;;;;;2.33;2.13;;;10.30;99.90;;;;;;487401;244;28010;-81
2023/08/05 04:05:06;;;;;;;1.97;1.87;;;10.30;99.90;;;;;;487473;244;27988;-80
2023/08/05 04:07:07;;;;;;;2.90;2.70;;;10.30;99.90;;;;;;468847;252;28041;-80
2023/08/05 04:09:08;;;;;;;2.20;2.10;;;10.30;99.90;;;;;;487263;244;28645;-79
2023/08/05 04:11:10;;;;;;;7.00;2.20;;;10.30;99.90;;;;;;487431;244;28785;-81
2023/08/05 04:13:11;;;;;;;2.13;2.03;;;10.30;99.90;;;;;;468851;253;28439;-79
2023/08/05 04:15:13;;;;;;;2.17;2.07;;;10.30;99.90;;;;;;487459;244;28062;-79
2023/08/05 04:17:14;;;;;;;2.10;2.00;;;10.40;99.90;;;;;;487379;244;27941;-80
2023/08/05 04:19:15;;;;;;;2.30;2.20;;;10.40;99.90;;;;;;468776;253;27807;-79
2023/08/05 04:21:16;;;;;;;2.50;2.30;;;10.40;99.90;;;;;;487371;244;27863;-80
2023/08/05 04:23:19;;;;;;;2.20;2.10;;;10.40;99.90;;;;;;487438;244;27900;-81
2023/08/05 04:25:18;;;;;;;2.23;2.13;;;10.40;99.90;;;;;;468693;253;28064;-80
2023/08/05 04:27:21;;;;;;;2.47;2.27;;;10.40;99.90;;;;;;487360;244;27886;-80
2023/08/05 04:29:22;;;;;;;2.10;2.00;;;10.40;99.90;;;;;;487276;244;28013;-79
2023/08/05 04:31:22;;;;;;;2.20;2.10;;;10.50;99.90;;;;;;468820;253;28117;-80
2023/08/05 04:33:25;;;;;;;2.10;2.00;;;10.50;99.90;;;;;;487469;244;28294;-81
2023/08/05 04:35:24;;;;;;;2.00;1.90;;;10.50;99.90;;;;;;487291;244;28621;-80
2023/08/05 04:37:27;;;;;;;2.30;2.00;;;10.50;99.90;;;;;;487444;244;28433;-80
2023/08/05 04:39:27;;;;;;;4.77;2.17;;;10.50;99.90;;;;;;487322;244;28542;-80
2023/08/05 04:41:28;;;;;;;2.07;1.97;;;10.60;99.90;;;;;;487494;243;28150;-78
2023/08/05 04:43:29;;;;;;;2.20;2.10;;;10.60;99.90;;;;;;487515;244;28002;-81
2023/08/05 04:45:31;;;;;;;1.90;1.80;;;10.60;99.90;;;;;;468920;253;28220;-81
2023/08/05 04:47:32;;;;;;;2.63;2.37;;;10.60;99.90;;;;;;487458;244;28029;-80
2023/08/05 04:49:33;;;;;;;2.50;2.40;;;10.60;99.90;;;;;;487479;244;28262;-81
2023/08/05 04:51:34;;;;;;;2.53;2.40;;;10.70;99.90;;;;;;468902;252;28161;-79
2023/08/05 04:53:36;;;;;;;3.73;2.90;;;10.80;99.90;;;;;;487514;244;28048;-82
2023/08/05 04:55:37;;;;;;;2.60;2.40;;;10.80;99.90;;;;;;487437;243;28125;-82
2023/08/05 04:57:38;;;;;;;9.40;2.57;;;10.80;99.90;;;;;;468810;252;28142;-81
2023/08/05 04:59:39;;;;;;;3.30;3.00;;;10.80;99.90;;;;;;487408;244;28439;-82
2023/08/05 05:01:41;;;;;;;3.43;2.90;;;10.80;99.90;;;;;;487430;244;28605;-79
2023/08/05 05:03:42;;;;;;;3.13;2.93;;;10.80;99.90;;;;;;468854;252;28548;-82
2023/08/05 05:05:44;;;;;;;3.23;2.93;;;10.80;99.90;;;;;;487406;243;27957;-78
2023/08/05 05:07:44;;;;;;;3.07;2.87;;;10.80;99.90;;;;;;468871;253;28333;-77
2023/08/05 05:09:46;;;;;;;3.50;3.20;;;10.90;99.90;;;;;;487435;244;28169;-80
2023/08/05 05:11:47;;;;;;;3.33;3.03;;;10.90;99.90;;;;;;487457;244;28037;-79
2023/08/05 05:13:50;;;;;;;3.10;2.80;;;10.90;99.90;;;;;;468916;252;27916;-82
2023/08/05 05:15:52;;;;;;;2.60;2.50;;;10.90;99.90;;;;;;487278;244;28177;-81
2023/08/05 05:17:51;;;;;;;3.77;2.87;;;10.90;99.90;;;;;;468840;253;28603;-79
2023/08/05 05:19:52;;;;;;;2.87;2.67;;;11.00;99.90;;;;;;487467;244;28180;-81
2023/08/05 05:21:53;;;;;;;3.33;3.13;;;11.00;99.90;;;;;;487418;244;28089;-80
2023/08/05 05:23:54;;;;;;;3.13;2.93;;;11.10;99.90;;;;;;468846;252;28678;-80
2023/08/05 05:25:57;;;;;;;2.87;2.67;;;11.10;99.90;;;;;;487373;244;28175;-80
2023/08/05 05:27:57;;;;;;;2.80;2.63;;;11.10;99.90;;;;;;487404;244;28070;-79
2023/08/05 05:29:58;;;;;;;3.00;2.80;;;11.10;99.90;;;;;;468850;253;28049;-82
2023/08/05 05:31:59;;;;;;;3.40;2.80;;;11.20;99.90;;;;;;487448;244;28067;-79
2023/08/05 05:34:01;;;;;;;3.03;2.83;;;11.20;99.90;;;;;;468883;252;28139;-81
2023/08/05 05:36:02;;;;;;;2.73;2.53;;;11.30;99.90;;;;;;487473;244;28296;-79
2023/08/05 05:38:03;;;;;;;3.17;2.97;;;11.30;99.90;;;;;;487535;241;28240;-80
2023/08/05 05:40:04;;;;;;;3.93;2.93;;;11.40;99.90;;;;;;468928;252;28339;-81
2023/08/05 05:42:06;;;;;;;3.57;2.60;;;11.40;99.90;;;;;;487388;243;28184;-79
2023/08/05 05:44:07;;;;;;;2.93;2.73;;;11.50;99.90;;;;;;468838;252;28421;-80
2023/08/05 05:46:08;;;;;;;3.17;2.97;;;11.50;99.90;;;;;;487419;244;28923;-80
2023/08/05 05:48:09;;;;;;;3.13;2.93;;;11.60;99.90;;;;;;487398;244;28933;-80
2023/08/05 05:50:11;;;;;;;3.60;3.30;;;11.70;99.90;;;;;;468862;252;28959;-81
2023/08/05 05:52:15;;;;;;;3.57;3.07;;;11.80;99.90;;;;;;487572;244;28191;-79
2023/08/05 05:54:13;;;;;;;3.03;2.70;;;11.80;99.90;;;;;;487444;244;28502;-81
2023/08/05 05:56:14;;;;;;;6.43;3.80;;;11.90;99.90;;;;;;469024;252;28158;-81
2023/08/05 05:58:16;;;;;;;3.20;3.00;;;11.90;99.90;;;;;;487630;244;27981;-79
2023/08/05 06:00:17;;;;;;;3.23;3.03;;;12.00;99.90;;;;;;487657;244;28204;-82
2023/08/05 06:02:18;;;;;;;3.80;3.50;;;12.00;99.90;;;;;;487458;244;28149;-81
2023/08/05 06:04:19;;;;;;;4.67;3.10;;;12.10;99.90;;;;;;468893;252;28285;-82
2023/08/05 06:06:21;;;;;;;5.60;3.27;;;12.20;99.90;;;;;;487535;244;28279;-81
2023/08/05 06:08:22;;;;;;;3.60;3.30;;;12.20;99.90;;;;;;487554;244;28413;-80
2023/08/05 06:10:23;;;;;;;2.90;2.70;;;12.20;99.90;;;;;;468970;252;28736;-82
2023/08/05 06:12:30;;;;;;;5.20;3.07;;;12.30;99.90;;;;;;487641;244;28581;-83
2023/08/05 06:14:26;;;;;;;3.23;3.03;;;12.30;99.90;;;;;;487297;244;28767;-83
2023/08/05 06:16:27;;;;;;;3.00;2.80;;;12.30;99.90;;;;;;469159;252;28529;-82
2023/08/05 06:18:28;;;;;;;3.30;3.10;;;12.40;99.90;;;;;;487369;244;28054;-79
2023/08/05 06:20:29;;;;;;;3.20;3.00;;;12.50;99.90;;;;;;487623;244;28497;-80
2023/08/05 06:22:31;;;;;;;3.37;3.07;;;12.50;99.90;;;;;;468941;252;28339;-80
2023/08/05 06:24:32;;;;;;;4.20;3.87;;;12.60;99.90;;;;;;487764;244;28574;-81
2023/08/05 06:26:33;;;;;;;8.40;6.10;;;12.60;99.90;;;;;;487795;243;28151;-80
2023/08/05 06:28:34;;;;;;;6.77;6.07;;;12.70;99.90;;;;;;469261;252;28723;-79
2023/08/05 06:30:36;;;;;;;7.80;5.30;;;12.80;99.90;;;;;;487870;244;28249;-81
2023/08/05 06:32:37;;;;;;;4.10;3.80;;;12.80;99.90;;;;;;487809;244;28176;-80
2023/08/05 06:34:38;;;;;;;4.90;4.27;;;13.00;99.90;;;;;;487826;244;28729;-80
2023/08/05 06:36:39;;;;;;;4.00;3.70;;;13.00;99.90;;;;;;487847;244;28769;-80
2023/08/05 06:38:41;;;;;;;4.83;4.43;;;13.10;99.90;;;;;;469260;252;29173;-80
2023/08/05 06:40:44;;;;;;;4.77;4.17;;;13.10;99.90;;;;;;487915;244;28339;-80
2023/08/05 06:42:43;;;;;;;4.07;3.77;;;13.20;99.90;;;;;;487726;244;28179;-80
2023/08/05 06:44:45;;;;;;;4.47;4.07;;;13.30;99.90;;;;;;469287;252;28283;-82
2023/08/05 06:46:46;;;;;;;3.90;3.60;;;13.30;99.90;;;;;;487929;244;28289;-80
2023/08/05 06:48:47;;;;;;;6.13;4.90;;;13.40;99.90;;;;;;487835;244;28239;-81
2023/08/05 06:50:48;;;;;;;5.37;4.87;;;13.40;99.90;;;;;;469436;252;28900;-79
2023/08/05 06:52:49;;;;;;;6.23;5.00;;;13.50;99.90;;;;;;487960;244;28173;-77
2023/08/05 06:54:51;;;;;;;5.37;4.87;;;13.50;99.90;;;;;;488007;244;28271;-80
2023/08/05 06:56:52;;;;;;;10.27;6.40;;;13.60;99.90;;;;;;469449;252;28444;-82
2023/08/05 06:58:54;;;;;;;7.97;5.60;;;13.60;99.90;;;;;;487961;244;28820;-81
2023/08/05 07:00:54;;;;;;;5.93;5.13;;;13.80;99.90;;;;;;487806;244;28790;-83
2023/08/05 07:02:57;;;;;;;13.70;6.17;;;13.80;99.90;;;;;;487937;244;28815;-82
2023/08/05 07:04:57;;;;;;;8.70;5.70;;;13.90;99.90;;;;;;469403;252;28479;-81
2023/08/05 07:06:58;;;;;;;7.20;5.80;;;13.90;99.90;;;;;;487960;244;28407;-80
2023/08/05 07:08:59;;;;;;;7.33;5.00;;;13.90;99.90;;;;;;488060;244;28272;-81
2023/08/05 07:11:01;;;;;;;9.73;5.70;;;14.00;99.90;;;;;;487993;244;28335;-81
2023/08/05 07:13:05;;;;;;;7.60;5.50;;;14.00;99.90;;;;;;469508;252;28331;-80
2023/08/05 07:15:04;;;;;;;7.07;6.37;;;14.00;99.90;;;;;;487827;244;28369;-82
2023/08/05 07:17:04;;;;;;;10.23;7.20;;;14.10;99.90;;;;;;469500;252;28563;-81
2023/08/05 07:19:06;;;;;;;7.33;6.00;;;14.10;99.90;;;;;;488157;244;28412;-83
2023/08/05 07:21:07;;;;;;;10.83;6.30;;;14.20;99.90;;;;;;488063;244;30248;-78
2023/08/05 07:23:08;;;;;;;6.53;5.03;;;14.20;99.90;;;;;;469497;252;29010;-80
2023/08/05 07:25:10;;;;;;;7.37;5.20;;;14.20;99.90;;;;;;488044;244;28702;-80
2023/08/05 07:27:11;;;;;;;8.17;5.90;;;14.40;99.90;;;;;;488040;244;28494;-84
2023/08/05 07:29:12;;;;;;;5.67;4.60;;;14.40;99.90;;;;;;469511;253;28463;-79
2023/08/05 07:31:15;;;;;;;5.43;4.93;;;14.40;99.90;;;;;;487928;244;28391;-80
2023/08/05 07:33:16;;;;;;;6.63;4.70;;;14.40;99.90;;;;;;488071;244;28315;-81
2023/08/05 07:35:16;;;;;;;5.80;4.73;;;14.50;99.90;;;;;;469358;253;29062;-78
2023/08/05 07:37:18;;;;;;;9.73;4.70;;;14.60;99.90;;;;;;488042;244;28608;-84
2023/08/05 07:39:19;;;;;;;4.57;4.27;;;14.70;99.90;;;;;;488059;244;28806;-80
2023/08/05 07:41:21;;;;;;;5.60;4.40;;;14.70;99.90;;;;;;488123;244;28372;-83
2023/08/05 07:43:23;;;;;;;6.70;4.23;;;14.80;99.90;;;;;;488079;244;28796;-80
2023/08/05 07:45:22;;;;;;;4.80;4.40;;;14.90;99.90;;;;;;487956;244;29429;-79
2023/08/05 07:47:23;;;;;;;8.63;4.80;;;14.90;99.90;;;;;;469610;252;28901;-78
2023/08/05 07:49:25;;;;;;;5.60;4.67;;;15.00;99.90;;;;;;488123;244;29343;-78
2023/08/05 07:51:26;;;;;;;5.00;4.40;;;15.20;99.90;;;;;;488152;244;28494;-79
2023/08/05 07:53:29;;;;;;;4.70;4.30;;;15.30;99.90;;;;;;469593;252;28913;-82
2023/08/05 07:55:30;;;;;;;4.20;3.83;;;15.30;99.90;;;;;;487802;244;28930;-79
2023/08/05 07:57:30;;;;;;;4.50;4.10;;;15.30;99.90;;;;;;469508;253;28849;-80
2023/08/05 07:59:31;;;;;;;7.07;4.30;;;15.40;99.90;;;;;;488209;244;28807;-78
2023/08/05 08:01:33;;;;;;;5.00;4.17;;;15.50;99.90;;;;;;488161;244;28789;-80
2023/08/05 08:03:33;;;;;;;7.53;4.10;;;15.50;99.90;;;;;;469495;253;28922;-78
2023/08/05 08:05:35;;;;;;;4.00;3.70;;;15.50;99.90;;;;;;488095;244;28895;-82
2023/08/05 08:07:36;;;;;;;4.53;3.70;;;15.40;99.90;;;;;;488085;244;28871;-81
2023/08/05 08:09:37;;;;;;;4.80;3.63;;;15.50;99.90;;;;;;469515;252;28856;-79
2023/08/05 08:11:38;;;;;;;6.27;4.27;;;15.50;99.90;;;;;;488056;244;29357;-81
2023/08/05 08:13:40;;;;;;;3.90;3.33;;;15.70;99.90;;;;;;488016;244;29357;-79
2023/08/05 08:15:41;;;;;;;4.23;3.93;;;15.90;99.90;;;;;;469533;252;28848;-78
2023/08/05 08:17:42;;;;;;;4.23;3.90;;;15.90;99.90;;;;;;488090;244;28794;-81
2023/08/05 08:19:45;;;;;;;5.20;3.70;;;16.00;99.90;;;;;;488116;243;28852;-80
2023/08/05 08:21:45;;;;;;;4.00;3.67;;;16.20;99.90;;;;;;487881;244;28829;-79
2023/08/05 08:23:46;;;;;;;4.27;3.53;;;16.30;99.90;;;;;;488097;244;28878;-81
2023/08/05 08:25:47;;;;;;;5.43;3.83;;;16.30;99.90;;;;;;488148;243;28870;-81
2023/08/05 08:27:48;;;;;;;5.93;3.80;;;16.40;99.90;;;;;;469483;253;28870;-79
2023/08/05 08:29:50;;;;;;;3.40;3.00;;;16.60;99.90;;;;;;488140;244;28818;-81
2023/08/05 08:31:51;;;;;;;3.77;3.30;;;16.70;99.90;;;;;;488167;244;28884;-83
2023/08/05 08:33:52;;;;;;;5.07;3.43;;;16.70;99.90;;;;;;469578;252;28969;-81
2023/08/05 08:35:53;;;;;;;4.00;3.30;;;16.60;99.90;;;;;;488097;244;29545;-82
2023/08/05 08:37:55;;;;;;;3.63;3.23;;;16.40;99.90;;;;;;488152;244;29522;-81
2023/08/05 08:39:56;;;;;;;3.03;2.83;;;16.30;99.90;;;;;;488225;243;29420;-83
2023/08/05 08:41:57;;;;;;;4.63;2.93;;;16.30;99.90;;;;;;469477;252;28850;-80
2023/08/05 08:43:58;;;;;;;4.40;3.90;;;16.30;99.90;;;;;;488077;244;28874;-83
2023/08/05 08:46:00;;;;;;;4.40;3.40;;;16.50;99.90;;;;;;488139;244;28800;-80
2023/08/05 08:48:01;;;;;;;5.17;3.03;;;16.60;99.90;;;;;;469504;252;28882;-80
2023/08/05 08:50:02;;;;;;;3.70;2.80;;;16.90;99.90;;;;;;488086;244;28791;-81
2023/08/05 08:52:03;;;;;;;3.17;2.87;;;16.90;99.90;;;;;;488132;244;28707;-81
2023/08/05 08:54:05;;;;;;;4.03;3.63;;;17.00;99.90;;;;;;469530;252;28892;-82
2023/08/05 08:56:06;;;;;;;3.00;2.70;;;17.10;99.90;;;;;;488008;244;28819;-80
2023/08/05 08:58:07;;;;;;;3.13;2.90;;;17.10;99.90;;;;;;488098;244;28817;-77
2023/08/05 09:00:08;;;;;;;3.87;3.40;;;17.20;99.90;;;;;;469517;252;28952;-82
2023/08/05 09:02:10;;;;;;;3.60;3.30;;;17.30;99.90;;;;;;488007;244;29339;-82
2023/08/05 09:04:11;;;;;;;3.67;3.37;;;17.40;99.90;;;;;;469424;252;29324;-82
2023/08/05 09:06:12;;;;;;;5.67;3.33;;;17.50;99.90;;;;;;488100;244;28875;-82
2023/08/05 09:08:13;;;;;;;3.33;3.03;;;17.50;99.90;;;;;;488074;244;28834;-80
2023/08/05 09:10:15;;;;;;;7.20;3.40;;;17.60;99.90;;;;;;469476;252;28931;-80
2023/08/05 09:12:16;;;;;;;4.67;3.77;;;17.60;99.90;;;;;;488122;244;28771;-82
2023/08/05 09:14:17;;;;;;;4.47;3.10;;;17.60;99.90;;;;;;488122;244;28792;-84
2023/08/05 09:16:18;;;;;;;3.80;3.40;;;17.70;99.90;;;;;;469524;252;28966;-84
2023/08/05 09:18:20;;;;;;;3.30;2.77;;;17.80;99.90;;;;;;488030;244;28817;-80
2023/08/05 09:20:24;;;;;;;3.23;2.63;;;17.60;99.90;;;;;;488124;244;28885;-83
2023/08/05 09:22:22;;;;;;;4.27;2.70;;;17.50;99.90;;;;;;469442;252;28883;-80
2023/08/05 09:24:26;;;;;;;3.00;2.80;;;17.40;99.90;;;;;;488139;244;29273;-83
2023/08/05 09:26:27;;;;;;;5.53;2.60;;;17.40;99.90;;;;;;488090;244;29563;-79
2023/08/05 09:28:30;;;;;;;3.50;2.80;;;17.50;99.90;;;;;;469481;252;29358;-81
2023/08/05 09:30:30;;;;;;;2.63;2.43;;;17.60;99.90;;;;;;488028;244;28787;-81
2023/08/05 09:32:31;;;;;;;2.80;2.60;;;17.80;99.90;;;;;;488125;244;28837;-82
2023/08/05 09:34:33;;;;;;;2.97;2.70;;;17.60;99.90;;;;;;469492;252;28868;-82
2023/08/05 09:36:34;;;;;;;3.35;2.58;;;17.50;99.90;;;;;;485280;244;47011;-80
2023/08/05 09:38:35;;;;;;;3.23;2.93;;;17.40;99.90;;;;;;488143;244;27516;-83
2023/08/05 09:40:41;;;;;;;2.80;2.60;;;17.40;99.90;;;;;;469551;253;29348;-81
2023/08/05 09:42:37;;;;;;;2.53;2.33;;;17.40;99.90;;;;;;487772;244;28790;-83
2023/08/05 09:44:39;;;;;;;4.13;3.20;;;17.50;99.90;;;;;;469454;252;28847;-82
2023/08/05 09:46:45;;;;;;;3.63;2.70;;;17.60;99.90;;;;;;488060;244;28826;-84
2023/08/05 09:48:44;;;;;;;3.17;2.90;;;17.70;99.90;;;;;;487904;244;28845;-83
2023/08/05 09:50:45;;;;;;;2.70;2.50;;;17.90;99.90;;;;;;469460;252;28892;-85
2023/08/05 09:52:49;;;;;;;4.23;3.07;;;18.10;99.90;;;;;;487912;244;29314;-84
2023/08/05 09:54:48;;;;;;;2.80;2.60;;;18.10;99.90;;;;;;487712;244;29421;-83
2023/08/05 09:56:49;;;;;;;4.63;2.77;;;18.20;99.90;;;;;;487906;244;29422;-82
2023/08/05 09:58:50;;;;;;;3.10;2.53;;;18.40;99.90;;;;;;487917;244;28818;-85
2023/08/05 10:00:51;;;;;;;3.17;2.50;;;18.50;99.90;;;;;;469361;252;28899;-86
2023/08/05 10:02:53;;;;;;;2.70;2.50;;;18.60;99.90;;;;;;488055;244;28977;-82
2023/08/05 10:04:54;;;;;;;7.00;2.93;;;18.70;99.90;;;;;;488048;244;28845;-83
2023/08/05 10:06:55;;;;;;;4.00;2.80;;;18.70;99.90;;;;;;469494;252;28966;-82
2023/08/05 10:08:56;;;;;;;4.13;2.67;;;18.60;99.90;;;;;;488048;244;28918;-85
2023/08/05 10:10:59;;;;;;;4.10;2.87;;;18.40;99.90;;;;;;488101;244;28804;-82
2023/08/05 10:12:59;;;;;;;2.87;2.67;;;18.40;99.90;;;;;;469500;253;29494;-81
2023/08/05 10:15:00;;;;;;;2.50;2.30;;;18.40;99.90;;;;;;488055;244;29336;-83
2023/08/05 10:17:01;;;;;;;2.40;2.20;;;18.50;99.90;;;;;;488057;244;29363;-82
2023/08/05 10:19:03;;;;;;;2.60;2.40;;;18.80;99.90;;;;;;469532;253;29380;-83
2023/08/05 10:21:06;;;;;;;3.17;2.40;;;18.90;99.90;;;;;;488001;244;28901;-82
2023/08/05 10:23:05;;;;;;;5.53;2.83;;;18.90;99.90;;;;;;487983;244;28826;-79
2023/08/05 10:25:06;;;;;;;2.73;2.53;;;19.00;99.90;;;;;;488122;243;28807;-83
2023/08/05 10:27:08;;;;;;;6.10;2.77;;;19.00;99.90;;;;;;488097;244;28806;-83
2023/08/05 10:29:09;;;;;;;3.10;2.43;;;19.10;99.90;;;;;;469518;252;29002;-80
2023/08/05 10:31:10;;;;;;;8.93;2.70;;;19.30;99.90;;;;;;488110;244;28718;-84